Airfield :
LOGIN :

Register | Disclaimer

   EN    FR    IT 

 










Legend :    VFR   Marginal VFR   IFR   Intensive IFR   Very Intensive IFR
Visi :
Ceiling :
>= 8 km
>= 3000ft
5 to 8 km
1000 to 3000 ft
1500m to 5 km
500 to 1000 ft
800 to 1500m
200 to 500 ft
< 800m
< 200 ft
Symbols :   Thunderstorms  Fog  Heavy snow  Heavy precipitations  Wind > 20 kt
SIGMETs :     Misc.  Thunderstorms  Icing  Turbulence  Mountain Waves  Volcanic Ashes






- Airport Elevation : 2767 ft


LTAE - Akıncı Air Base

CURRENT METAR :
  • 040350Z 05003KT 9999 FEW040 SCT090 M02/M03 Q1020 NOSIG RMK RWY21 06002KT

EXPIRED METARs :
  • 040250Z 33004KT 9999 FEW040 SCT090 M02/M04 Q1020 NOSIG RMK RWY21 01005KT
  • 040150Z 32002KT 9999 FEW040 SCT090 M02/M04 Q1020 NOSIG RMK RWY21 06003KT 030V100

TAF TAF LTAE
Valid from the 04 at 03:00 until the 04 at 12:00 UTC


040140Z 0403/0412 VRB02KT 9999 FEW040 SCT090
BECMG 0408/0412 CAVOK



MET'MAP, your aeronautical weather chart ! - Copyright ORBIFLY December 2007 - Disclaimer

ORBIFLY MET'MAP TEAM :

Programming & Development : Alexandra Zaïnal
Concept & original design : Baudouin d'Aumeries
Assistance for programming : Marc-Olivier Méhu
Technical & hardware support : Manuel Goepfert

Contact : metmap@orbifly.com




SOURCES & CREDITS :

   NOAA